createdAt,value
2022-12-25T00:02:10.092Z,1
2022-12-25T00:12:10.237Z,1
2022-12-25T00:22:10.078Z,1
2022-12-25T00:32:10.185Z,1
2022-12-25T00:42:10.083Z,1
2022-12-25T00:52:10.213Z,1
2022-12-25T01:02:00.434Z,1
2022-12-25T01:12:00.255Z,1
2022-12-25T01:22:00.311Z,1
2022-12-25T01:32:00.403Z,1
2022-12-25T01:42:00.327Z,1
2022-12-25T01:52:00.220Z,1
2022-12-25T02:02:00.481Z,1
2022-12-25T02:12:00.415Z,1
2022-12-25T02:22:00.327Z,1
2022-12-25T02:32:00.361Z,1
2022-12-25T02:42:00.302Z,1
2022-12-25T02:52:00.418Z,1
2022-12-25T03:02:00.478Z,1
2022-12-25T03:12:00.439Z,1
2022-12-25T03:22:00.319Z,1
2022-12-25T03:32:00.435Z,1
2022-12-25T03:42:00.294Z,1
2022-12-25T03:52:00.457Z,1
2022-12-25T04:02:00.458Z,1
2022-12-25T04:12:02.660Z,1
2022-12-25T04:22:00.516Z,1
2022-12-25T04:32:00.448Z,1
2022-12-25T04:42:00.557Z,1
2022-12-25T04:52:00.447Z,1
2022-12-25T05:02:00.618Z,1
2022-12-25T05:12:00.419Z,1
2022-12-25T05:22:00.504Z,1
2022-12-25T05:32:00.426Z,1
2022-12-25T05:42:00.526Z,1
2022-12-25T05:52:00.423Z,1
2022-12-25T06:02:00.700Z,1
2022-12-25T06:12:00.610Z,1
2022-12-25T06:22:00.510Z,1
2022-12-25T06:32:00.713Z,1
2022-12-25T06:42:00.520Z,1
2022-12-25T06:52:00.690Z,1
2022-12-25T07:02:00.711Z,1
2022-12-25T07:12:00.627Z,1
2022-12-25T07:22:00.674Z,1
2022-12-25T07:32:00.665Z,1
2022-12-25T07:42:00.687Z,1
2022-12-25T07:52:00.604Z,1
2022-12-25T08:02:00.903Z,4
2022-12-25T08:12:00.607Z,13
2022-12-25T08:22:00.667Z,28
2022-12-25T08:32:00.587Z,41
2022-12-25T08:42:00.680Z,53
2022-12-25T08:52:00.803Z,52
2022-12-25T09:02:00.735Z,63
2022-12-25T09:12:00.809Z,65
2022-12-25T09:22:00.648Z,60
2022-12-25T09:32:00.781Z,57
2022-12-25T09:42:00.655Z,60
2022-12-25T09:52:00.779Z,63
2022-12-25T10:02:00.830Z,74
2022-12-25T10:12:00.772Z,80
2022-12-25T10:22:00.852Z,83
2022-12-25T10:32:00.839Z,83
2022-12-25T10:42:00.900Z,87
2022-12-25T10:52:00.800Z,88
2022-12-25T11:02:00.950Z,90
2022-12-25T11:12:00.862Z,90
2022-12-25T11:22:01.326Z,89
2022-12-25T11:32:00.990Z,87
2022-12-25T11:42:00.930Z,83
2022-12-25T11:52:00.845Z,88
2022-12-25T12:02:00.987Z,79
2022-12-25T12:12:01.009Z,81
2022-12-25T12:22:00.914Z,94
2022-12-25T12:32:01.152Z,95
2022-12-25T12:42:00.908Z,95
2022-12-25T12:52:01.027Z,95
2022-12-25T13:02:01.087Z,93
2022-12-25T13:12:01.055Z,93
2022-12-25T13:22:01.028Z,94
2022-12-25T13:32:01.143Z,92
2022-12-25T13:42:01.049Z,93
2022-12-25T13:52:00.947Z,93
2022-12-25T14:02:01.183Z,91
2022-12-25T14:12:00.966Z,91
2022-12-25T14:22:01.059Z,91
2022-12-25T14:32:01.194Z,90
2022-12-25T14:42:01.131Z,89
2022-12-25T14:52:01.009Z,88
2022-12-25T15:02:01.306Z,86
2022-12-25T15:12:01.036Z,84
2022-12-25T15:22:01.096Z,83
2022-12-25T15:32:01.072Z,80
2022-12-25T15:42:01.126Z,72
2022-12-25T15:52:01.047Z,61
2022-12-25T16:02:01.199Z,48
2022-12-25T16:12:01.223Z,27
2022-12-25T16:22:01.147Z,13
2022-12-25T16:32:01.257Z,4
2022-12-25T16:42:01.134Z,1
2022-12-25T16:52:01.214Z,1
2022-12-25T17:02:01.227Z,1
2022-12-25T17:12:01.250Z,1
2022-12-25T17:22:01.128Z,1
2022-12-25T17:32:01.280Z,1
2022-12-25T17:42:01.302Z,1
2022-12-25T17:52:01.204Z,1
2022-12-25T18:02:01.267Z,4
2022-12-25T18:12:01.280Z,1
2022-12-25T18:22:01.172Z,1
2022-12-25T18:32:01.377Z,1
2022-12-25T18:42:01.179Z,1
2022-12-25T18:52:46.777Z,1
2022-12-25T19:02:01.543Z,1
2022-12-25T19:12:01.294Z,1
2022-12-25T19:22:01.412Z,1
2022-12-25T19:32:01.365Z,2
2022-12-25T19:42:01.359Z,1
2022-12-25T19:52:01.278Z,1
2022-12-25T20:02:01.493Z,1
2022-12-25T20:12:01.282Z,1
2022-12-25T20:22:01.358Z,1
2022-12-25T20:32:01.484Z,1
2022-12-25T20:42:01.352Z,1
2022-12-25T20:52:05.064Z,1
2022-12-25T21:02:01.510Z,1
2022-12-25T21:12:01.471Z,1
2022-12-25T21:22:01.331Z,1
2022-12-25T21:32:01.467Z,1
2022-12-25T21:42:01.354Z,1
2022-12-25T21:52:01.480Z,1
2022-12-25T22:02:01.669Z,1
2022-12-25T22:12:01.470Z,1
2022-12-25T22:22:01.548Z,1
2022-12-25T22:32:01.455Z,1
2022-12-25T22:42:01.561Z,1
2022-12-25T22:52:01.464Z,1
2022-12-25T23:02:01.618Z,1
2022-12-25T23:12:01.446Z,1
2022-12-25T23:22:01.539Z,1
2022-12-25T23:32:01.480Z,1
2022-12-25T23:42:01.554Z,1
2022-12-25T23:52:01.671Z,1
